Time;durP1;ratioP1;P1;durP2;ratioP2;P2;SDS_P1;SDS_P2;PMS_P1;PMS_P2;Temp;Humidity;BMP_temperature;BMP_pressure;BME280_temperature;BME280_humidity;BME280_pressure;Samples;Min_cycle;Max_cycle;Signal;HPM_P1;HPM_P2
2022/08/26 00:01:28;;;;;;;22.67;17.27;;;21.50;99.90;;;;;;4985164;28;20022;-62
2022/08/26 00:03:53;;;;;;;20.38;15.55;;;21.90;99.90;;;;;;4985608;28;20018;-63
2022/08/26 00:06:22;;;;;;;20.20;18.08;;;;;;;;;;4985798;28;20040;-62
2022/08/26 00:08:47;;;;;;;25.23;21.02;;;21.30;99.90;;;;;;4983736;28;20030;-62
2022/08/26 00:11:13;;;;;;;24.90;22.25;;;21.60;99.90;;;;;;4986423;28;20129;-62
2022/08/26 00:13:39;;;;;;;28.15;23.63;;;21.60;99.90;;;;;;4981683;28;20022;-62
2022/08/26 00:16:07;;;;;;;26.17;23.23;;;21.60;99.90;;;;;;4983691;28;20385;-61
2022/08/26 00:18:32;;;;;;;27.88;24.42;;;21.60;99.90;;;;;;4985112;28;20081;-61
2022/08/26 00:20:58;;;;;;;29.40;24.55;;;21.60;99.90;;;;;;4986723;28;20042;-62
2022/08/26 00:23:23;;;;;;;28.83;25.85;;;21.60;99.90;;;;;;4984938;28;20027;-62
2022/08/26 00:25:49;;;;;;;30.63;25.85;;;21.60;99.90;;;;;;4992529;28;20019;-62
2022/08/26 00:28:17;;;;;;;27.33;23.77;;;;;;;;;;4985116;28;20034;-62
2022/08/26 00:30:48;;;;;;;33.10;28.45;;;;;;;;;;4985144;28;20121;-63
2022/08/26 00:33:15;;;;;;;32.88;27.95;;;;;;;;;;4983198;28;20081;-61
2022/08/26 00:35:43;;;;;;;31.38;27.73;;;;;;;;;;4981965;28;20080;-62
2022/08/26 00:38:09;;;;;;;31.48;28.25;;;21.70;99.90;;;;;;4985087;28;20036;-62
2022/08/26 00:40:45;;;;;;;32.20;28.88;;;21.70;99.90;;;;;;4984184;28;20030;-62
2022/08/26 00:43:11;;;;;;;33.60;28.35;;;21.60;99.90;;;;;;4985139;28;20030;-62
2022/08/26 00:45:51;;;;;;;34.08;30.63;;;21.50;99.90;;;;;;4984981;28;20037;-62
2022/08/26 00:48:21;;;;;;;34.70;30.58;;;21.40;99.90;;;;;;4982744;28;20034;-62
2022/08/26 00:50:52;;;;;;;33.47;29.92;;;;;;;;;;4981946;28;20030;-62
2022/08/26 00:53:21;;;;;;;34.05;30.67;;;;;;;;;;4983440;28;20041;-62
2022/08/26 00:56:08;;;;;;;41.53;32.72;;;;;;;;;;4985577;28;20141;-61
2022/08/26 00:58:37;;;;;;;37.83;32.47;;;21.00;99.90;;;;;;4983507;28;20485;-62
2022/08/26 01:01:04;;;;;;;36.97;33.00;;;;;;;;;;4984580;28;20034;-62
2022/08/26 01:03:32;;;;;;;36.80;33.03;;;;;;;;;;4987946;28;20081;-61
2022/08/26 01:05:59;;;;;;;42.28;34.95;;;;;;;;;;4985085;28;20390;-62
2022/08/26 01:08:26;;;;;;;40.95;33.72;;;;;;;;;;4988196;28;20034;-62
2022/08/26 01:10:52;;;;;;;40.38;35.70;;;;;;;;;;4984621;28;20029;-61
2022/08/26 01:13:20;;;;;;;41.47;37.28;;;;;;;;;;4988507;28;20030;-61
2022/08/26 01:15:50;;;;;;;38.97;34.72;;;;;;;;;;4982440;28;20054;-62
2022/08/26 01:18:18;;;;;;;39.85;35.67;;;;;;;;;;4986178;28;20030;-62
2022/08/26 01:20:50;;;;;;;38.67;34.42;;;;;;;;;;4980875;28;20030;-62
2022/08/26 01:23:16;;;;;;;33.13;29.70;;;;;;;;;;4985215;28;20038;-62
2022/08/26 01:25:44;;;;;;;40.30;35.90;;;;;;;;;;4984101;28;20040;-62
2022/08/26 01:28:14;;;;;;;40.90;36.70;;;;;;;;;;4984660;28;20612;-62
2022/08/26 01:30:41;;;;;;;36.67;32.88;;;;;;;;;;4985863;28;20027;-62
2022/08/26 01:33:10;;;;;;;39.05;34.88;;;;;;;;;;4984077;28;20081;-61
2022/08/26 01:35:36;;;;;;;39.97;35.97;;;;;;;;;;4984836;28;21202;-62
2022/08/26 01:38:03;;;;;;;38.40;34.20;;;;;;;;;;4983806;28;20038;-62
2022/08/26 01:40:31;;;;;;;37.22;32.30;;;;;;;;;;4985801;28;20130;-61
2022/08/26 01:42:59;;;;;;;41.97;36.50;;;;;;;;;;4983435;28;20490;-62
2022/08/26 01:45:27;;;;;;;36.05;32.42;;;;;;;;;;4985230;28;20022;-62
2022/08/26 01:47:55;;;;;;;43.55;38.92;;;;;;;;;;4987257;28;20527;-62
2022/08/26 01:50:23;;;;;;;41.72;37.40;;;;;;;;;;4982940;28;20030;-62
2022/08/26 01:52:49;;;;;;;40.65;36.20;;;;;;;;;;4985706;28;20579;-62
2022/08/26 01:55:18;;;;;;;42.65;38.17;;;;;;;;;;4984265;28;20053;-62
2022/08/26 01:57:45;;;;;;;42.55;38.15;;;;;;;;;;4985456;28;20080;-63
2022/08/26 02:00:12;;;;;;;43.30;38.60;;;;;;;;;;4984458;28;20100;-62
2022/08/26 02:02:39;;;;;;;42.85;38.55;;;;;;;;;;4989159;28;20034;-62
2022/08/26 02:05:06;;;;;;;41.35;36.95;;;;;;;;;;4986673;28;20849;-60
2022/08/26 02:07:32;;;;;;;41.63;37.25;;;;;;;;;;4987309;28;20473;-62
2022/08/26 02:09:58;;;;;;;44.28;39.85;;;;;;;;;;4985457;28;20140;-62
2022/08/26 02:12:25;;;;;;;45.03;40.30;;;;;;;;;;4987020;28;20045;-62
2022/08/26 02:14:53;;;;;;;43.22;38.88;;;;;;;;;;4977510;28;20026;-61
2022/08/26 02:17:21;;;;;;;43.03;38.60;;;;;;;;;;4984844;28;20031;-61
2022/08/26 02:19:48;;;;;;;45.08;40.53;;;;;;;;;;4983812;28;20036;-62
2022/08/26 02:22:16;;;;;;;42.40;38.00;;;;;;;;;;4985182;28;20038;-61
2022/08/26 02:24:54;;;;;;;40.22;35.90;;;;;;;;;;4982852;28;20134;-62
2022/08/26 02:27:31;;;;;;;40.92;36.60;;;;;;;;;;4988259;28;20081;-63
2022/08/26 02:30:17;;;;;;;39.33;35.10;;;;;;;;;;4983662;28;20030;-62
2022/08/26 02:32:43;;;;;;;36.75;32.85;;;;;;;;;;4983925;28;20038;-62
2022/08/26 02:35:11;;;;;;;39.58;35.30;;;;;;;;;;4979513;28;20022;-62
2022/08/26 02:37:37;;;;;;;39.05;35.20;;;;;;;;;;4987444;28;20048;-62
2022/08/26 02:40:04;;;;;;;41.22;37.03;;;;;;;;;;4982265;28;20213;-62
2022/08/26 02:42:29;;;;;;;44.35;38.05;;;;;;;;;;4984779;28;20031;-63
2022/08/26 02:44:55;;;;;;;41.88;37.33;;;;;;;;;;4983474;28;20034;-62
2022/08/26 02:47:21;;;;;;;43.63;38.88;;;;;;;;;;4985224;28;20462;-63
2022/08/26 02:49:48;;;;;;;40.03;35.83;;;;;;;;;;4986781;28;20029;-62
2022/08/26 02:52:14;;;;;;;43.20;38.10;;;;;;;;;;4985180;28;20034;-62
2022/08/26 02:54:39;;;;;;;44.67;37.45;;;;;;;;;;4984670;28;20097;-62
2022/08/26 02:57:05;;;;;;;44.70;37.38;;;;;;;;;;4990416;28;20125;-63
2022/08/26 02:59:31;;;;;;;43.05;37.58;;;;;;;;;;4990590;28;20034;-62
2022/08/26 03:01:57;;;;;;;40.75;35.88;;;20.80;99.90;;;;;;4990961;28;20080;-62
2022/08/26 03:04:23;;;;;;;40.90;34.75;;;21.10;99.90;;;;;;4981609;28;20038;-62
2022/08/26 03:06:49;;;;;;;42.72;36.45;;;20.90;99.90;;;;;;4987088;28;20525;-62
2022/08/26 03:09:17;;;;;;;40.85;34.28;;;20.80;99.90;;;;;;4989107;28;20027;-62
2022/08/26 03:11:43;;;;;;;39.17;33.83;;;20.90;99.90;;;;;;4984943;28;20203;-62
2022/08/26 03:14:08;;;;;;;37.47;30.95;;;20.90;99.90;;;;;;4978852;28;20114;-62
2022/08/26 03:16:36;;;;;;;38.35;31.58;;;21.00;99.90;;;;;;4985543;28;20034;-62
2022/08/26 03:19:02;;;;;;;35.25;30.23;;;20.90;99.90;;;;;;4987177;28;20500;-62
2022/08/26 03:21:28;;;;;;;35.65;30.17;;;20.90;99.90;;;;;;4986515;28;20425;-63
2022/08/26 03:23:55;;;;;;;38.30;30.17;;;21.10;99.90;;;;;;4984313;28;20033;-61
2022/08/26 03:26:22;;;;;;;40.17;29.45;;;;;;;;;;4986275;28;20042;-61
2022/08/26 03:31:34;;;;;;;36.08;29.15;;;;;;;;;;4985799;28;20050;-62
2022/08/26 03:34:03;;;;;;;33.38;29.25;;;;;;;;;;4986300;28;20042;-62
2022/08/26 03:36:30;;;;;;;33.47;28.85;;;;;;;;;;4987666;28;20041;-61
2022/08/26 03:38:57;;;;;;;39.60;26.67;;;;;;;;;;4986130;28;20406;-62
2022/08/26 03:41:25;;;;;;;35.13;26.67;;;;;;;;;;4986783;28;20709;-62
2022/08/26 03:43:52;;;;;;;35.78;27.55;;;;;;;;;;4986143;28;20549;-61
2022/08/26 03:46:19;;;;;;;32.75;25.90;;;20.80;99.90;;;;;;4985392;28;20494;-62
2022/08/26 03:48:45;;;;;;;36.53;26.05;;;21.10;99.90;;;;;;4986997;28;20034;-61
2022/08/26 03:51:16;;;;;;;35.25;26.88;;;21.00;99.90;;;;;;4982570;28;20052;-62
2022/08/26 03:53:42;;;;;;;32.90;25.38;;;;;;;;;;4985704;28;20034;-62
2022/08/26 03:56:09;;;;;;;33.28;25.67;;;20.90;99.90;;;;;;4985650;28;20034;-62
2022/08/26 03:58:36;;;;;;;34.05;26.17;;;;;;;;;;4986587;28;20104;-62
2022/08/26 04:01:01;;;;;;;32.63;24.67;;;20.90;99.90;;;;;;4988271;28;20113;-62
2022/08/26 04:06:14;;;;;;;29.33;23.77;;;;;;;;;;4982358;28;20050;-61
2022/08/26 04:08:41;;;;;;;31.25;24.23;;;;;;;;;;4982385;28;20050;-62
2022/08/26 04:11:08;;;;;;;26.95;23.65;;;;;;;;;;4984014;28;20050;-61
2022/08/26 04:13:35;;;;;;;29.58;23.65;;;;;;;;;;4983696;28;20062;-62
2022/08/26 04:16:02;;;;;;;36.90;25.30;;;;;;;;;;4976766;28;20117;-61
2022/08/26 04:18:31;;;;;;;30.65;22.73;;;;;;;;;;4983481;28;20030;-62
2022/08/26 04:20:58;;;;;;;30.83;23.45;;;;;;;;;;4986747;28;20038;-62
2022/08/26 04:23:25;;;;;;;28.27;22.05;;;;;;;;;;4984398;28;20113;-61
2022/08/26 04:25:50;;;;;;;26.15;21.95;;;20.90;99.90;;;;;;4988298;28;20030;-62
2022/08/26 04:28:19;;;;;;;29.92;20.27;;;21.20;99.90;;;;;;4981417;28;20113;-61
2022/08/26 04:30:45;;;;;;;30.38;21.45;;;21.10;99.90;;;;;;4988064;28;20026;-62
2022/08/26 04:33:12;;;;;;;24.20;20.30;;;21.20;99.90;;;;;;4983503;28;20117;-62
2022/08/26 04:35:38;;;;;;;28.10;19.67;;;21.20;99.90;;;;;;4985778;28;20126;-62
2022/08/26 04:38:03;;;;;;;27.92;19.98;;;;;;;;;;4982919;28;20829;-62
2022/08/26 04:40:30;;;;;;;26.02;19.13;;;;;;;;;;4983802;28;20022;-63
2022/08/26 04:42:58;;;;;;;23.17;17.25;;;;;;;;;;4983364;28;20030;-62
2022/08/26 04:45:24;;;;;;;28.42;18.40;;;;;;;;;;4986464;28;20069;-62
2022/08/26 04:47:56;;;;;;;25.10;17.17;;;;;;;;;;4988249;28;20106;-62
2022/08/26 04:50:25;;;;;;;27.27;17.17;;;20.80;99.90;;;;;;4984032;28;20026;-63
2022/08/26 04:52:50;;;;;;;22.00;15.70;;;21.30;99.90;;;;;;4988195;28;20602;-62
2022/08/26 04:55:16;;;;;;;23.65;17.25;;;21.20;99.90;;;;;;4982571;28;20030;-62
2022/08/26 04:57:42;;;;;;;22.15;16.10;;;21.20;99.90;;;;;;4984370;28;20034;-62
2022/08/26 05:00:12;;;;;;;27.58;16.25;;;21.00;99.90;;;;;;4982772;28;20026;-62
2022/08/26 05:02:39;;;;;;;21.77;15.70;;;;;;;;;;4984842;28;20524;-63
2022/08/26 05:05:06;;;;;;;22.40;14.77;;;20.90;99.90;;;;;;4985294;28;20356;-62
2022/08/26 05:07:33;;;;;;;19.50;14.55;;;21.00;99.90;;;;;;4985904;28;20026;-60
2022/08/26 05:09:59;;;;;;;23.45;14.50;;;21.00;99.90;;;;;;4985104;28;20458;-62
2022/08/26 05:12:26;;;;;;;19.75;14.25;;;20.80;99.90;;;;;;4983119;28;20029;-63
2022/08/26 05:14:52;;;;;;;20.60;14.38;;;21.00;99.90;;;;;;4984791;28;20042;-62
2022/08/26 05:17:17;;;;;;;20.17;13.98;;;21.40;99.90;;;;;;4981897;28;20026;-63
2022/08/26 05:19:43;;;;;;;20.35;13.00;;;20.90;99.90;;;;;;4984385;28;20080;-62
2022/08/26 05:22:09;;;;;;;20.75;13.88;;;21.00;99.90;;;;;;4986011;28;20030;-61
2022/08/26 05:24:35;;;;;;;18.98;12.85;;;20.90;99.90;;;;;;4983935;28;20124;-61
2022/08/26 05:27:01;;;;;;;18.95;12.88;;;21.00;99.90;;;;;;4983190;28;20111;-62
2022/08/26 05:29:27;;;;;;;17.13;11.65;;;21.00;99.90;;;;;;4986303;28;20093;-60
2022/08/26 05:31:53;;;;;;;18.42;11.93;;;20.90;99.90;;;;;;4984383;28;20042;-61
2022/08/26 05:34:19;;;;;;;18.45;11.63;;;21.00;99.90;;;;;;4984208;28;20665;-61
2022/08/26 05:36:45;;;;;;;20.15;13.48;;;21.00;99.90;;;;;;4985031;28;20034;-61
2022/08/26 05:39:11;;;;;;;20.50;12.07;;;20.80;99.90;;;;;;4983332;28;20092;-61
2022/08/26 05:41:39;;;;;;;18.85;12.70;;;20.90;99.90;;;;;;4983617;28;20030;-62
2022/08/26 05:44:08;;;;;;;18.00;12.02;;;20.90;99.90;;;;;;4985397;28;20504;-61
2022/08/26 05:46:35;;;;;;;23.15;12.23;;;20.80;99.90;;;;;;4981597;28;20062;-60
2022/08/26 05:49:02;;;;;;;17.48;11.73;;;21.00;99.90;;;;;;4985538;28;20671;-58
2022/08/26 05:51:28;;;;;;;19.98;16.98;;;21.20;99.90;;;;;;4983228;28;20125;-60
2022/08/26 05:53:54;;;;;;;17.35;11.43;;;21.00;99.90;;;;;;4984124;28;20089;-60
2022/08/26 05:56:23;;;;;;;15.10;10.80;;;20.90;99.90;;;;;;4982610;28;20022;-61
2022/08/26 05:58:49;;;;;;;20.05;11.07;;;20.90;99.90;;;;;;4981125;28;20473;-61
2022/08/26 06:01:18;;;;;;;24.58;10.93;;;21.20;99.90;;;;;;4982819;28;20106;-60
2022/08/26 06:03:47;;;;;;;13.77;9.20;;;21.50;99.90;;;;;;4984251;28;20041;-60
2022/08/26 06:06:19;;;;;;;17.20;9.77;;;21.20;99.90;;;;;;4981283;28;20093;-62
2022/08/26 06:08:45;;;;;;;12.20;10.30;;;21.10;99.90;;;;;;4979648;28;20050;-61
2022/08/26 06:11:12;;;;;;;18.55;10.48;;;21.10;99.90;;;;;;4980894;28;20116;-61
2022/08/26 06:13:39;;;;;;;21.27;11.77;;;21.20;99.90;;;;;;4974509;28;20127;-61
2022/08/26 06:16:09;;;;;;;18.05;11.80;;;21.30;99.90;;;;;;4979420;28;20038;-61
2022/08/26 06:18:38;;;;;;;17.30;11.00;;;21.20;99.90;;;;;;4980373;28;20037;-61
2022/08/26 06:21:29;;;;;;;23.52;12.30;;;21.10;99.90;;;;;;4982067;28;20042;-61
2022/08/26 06:26:51;;;;;;;15.45;10.52;;;21.00;99.90;;;;;;4981610;28;20469;-61
2022/08/26 06:29:19;;;;;;;18.67;9.90;;;21.20;99.90;;;;;;4981518;28;20026;-61
2022/08/26 06:31:44;;;;;;;19.58;9.90;;;21.10;99.90;;;;;;4983978;28;20478;-61
2022/08/26 06:34:10;;;;;;;37.38;11.80;;;21.10;99.90;;;;;;4986090;28;20033;-59
2022/08/26 06:36:38;;;;;;;19.13;8.80;;;21.30;99.90;;;;;;4985150;28;20030;-61
2022/08/26 06:39:09;;;;;;;19.25;8.77;;;21.20;99.90;;;;;;4983696;28;20460;-61
2022/08/26 06:41:36;;;;;;;24.52;9.15;;;21.20;99.90;;;;;;4982761;28;20638;-62
2022/08/26 06:44:04;;;;;;;19.77;8.52;;;21.30;99.90;;;;;;4984461;28;20085;-62
2022/08/26 06:46:30;;;;;;;18.25;9.27;;;21.30;99.90;;;;;;4982899;28;20029;-60
2022/08/26 06:48:57;;;;;;;16.77;8.20;;;21.20;99.90;;;;;;4986237;28;20294;-61
2022/08/26 06:51:31;;;;;;;19.52;9.32;;;21.30;99.90;;;;;;4980802;28;20030;-61
2022/08/26 06:53:59;;;;;;;30.73;10.13;;;21.30;99.90;;;;;;4981630;28;20042;-61
2022/08/26 06:56:33;;;;;;;13.95;9.52;;;21.30;99.90;;;;;;4980892;28;20497;-61
2022/08/26 06:58:58;;;;;;;21.73;9.93;;;21.30;99.90;;;;;;4983335;28;20057;-62
2022/08/26 07:01:28;;;;;;;15.90;9.95;;;21.20;99.90;;;;;;4979097;28;20742;-61
2022/08/26 07:03:56;;;;;;;14.57;9.13;;;21.10;99.90;;;;;;4984283;28;20038;-60
2022/08/26 07:06:24;;;;;;;15.35;9.63;;;21.30;99.90;;;;;;4984625;28;20542;-61
2022/08/26 07:08:51;;;;;;;14.82;9.43;;;21.20;99.90;;;;;;4983153;28;20521;-62
2022/08/26 07:11:18;;;;;;;13.77;8.75;;;21.20;99.90;;;;;;4984467;28;20052;-61
2022/08/26 07:13:49;;;;;;;16.63;9.18;;;21.30;99.90;;;;;;4979900;28;20532;-60
2022/08/26 07:16:16;;;;;;;15.57;8.30;;;21.40;99.90;;;;;;4982766;28;20030;-60
2022/08/26 07:18:43;;;;;;;11.82;8.60;;;21.30;99.90;;;;;;4985120;28;20034;-62
2022/08/26 07:21:10;;;;;;;11.70;7.50;;;21.20;99.90;;;;;;4982957;28;20061;-64
2022/08/26 07:23:37;;;;;;;12.65;7.05;;;21.20;99.90;;;;;;4982987;28;20209;-66
2022/08/26 07:26:07;;;;;;;13.00;6.78;;;21.50;99.90;;;;;;4981570;28;20035;-64
2022/08/26 07:28:33;;;;;;;13.25;6.30;;;21.50;99.90;;;;;;4981863;28;20038;-65
2022/08/26 07:31:04;;;;;;;10.48;5.57;;;21.60;99.90;;;;;;4983214;28;20038;-63
2022/08/26 07:33:29;;;;;;;12.38;5.60;;;21.60;99.90;;;;;;4981896;28;20133;-64
2022/08/26 07:35:55;;;;;;;14.07;5.82;;;21.70;99.90;;;;;;4979860;28;20055;-57
2022/08/26 07:38:21;;;;;;;10.27;5.03;;;21.50;99.90;;;;;;4982083;28;20038;-59
2022/08/26 07:40:46;;;;;;;12.98;4.97;;;21.60;99.90;;;;;;4984586;28;20041;-63
2022/08/26 07:43:16;;;;;;;11.38;5.10;;;21.50;99.90;;;;;;4986825;28;20106;-62
2022/08/26 07:45:41;;;;;;;13.70;5.20;;;21.50;99.90;;;;;;4980986;28;20030;-62
2022/08/26 07:48:07;;;;;;;10.20;5.38;;;21.40;99.90;;;;;;4985885;28;20022;-61
2022/08/26 07:50:34;;;;;;;11.90;5.60;;;21.60;99.90;;;;;;4985285;28;20492;-61
2022/08/26 07:53:04;;;;;;;8.98;4.88;;;21.50;99.90;;;;;;4989280;28;20030;-64
2022/08/26 07:55:29;;;;;;;11.38;4.88;;;21.50;99.90;;;;;;4985887;28;20073;-61
2022/08/26 07:57:56;;;;;;;21.83;16.27;;;21.60;99.90;;;;;;4985815;28;20034;-61
2022/08/26 08:00:22;;;;;;;12.90;4.75;;;21.60;99.90;;;;;;4985950;28;20031;-59
2022/08/26 08:02:48;;;;;;;12.18;4.90;;;21.60;99.90;;;;;;4984766;28;20714;-58
2022/08/26 08:05:18;;;;;;;10.10;5.03;;;21.60;99.90;;;;;;4987764;28;20113;-59
2022/08/26 08:07:44;;;;;;;9.95;5.40;;;21.60;99.90;;;;;;4986642;28;20026;-58
2022/08/26 08:10:13;;;;;;;12.45;4.80;;;21.50;99.90;;;;;;4985344;28;20033;-58
2022/08/26 08:12:40;;;;;;;8.52;4.13;;;21.50;99.90;;;;;;4986557;28;20022;-58
2022/08/26 08:15:07;;;;;;;9.48;4.20;;;21.70;99.90;;;;;;4983275;28;20030;-59
2022/08/26 08:17:33;;;;;;;10.40;4.10;;;21.80;99.90;;;;;;4989736;28;20473;-60
2022/08/26 08:20:00;;;;;;;11.55;4.05;;;21.80;99.90;;;;;;4986521;28;20041;-60
2022/08/26 08:22:26;;;;;;;10.45;3.55;;;22.00;99.90;;;;;;4984095;28;20514;-61
2022/08/26 08:24:52;;;;;;;12.18;3.67;;;22.20;99.90;;;;;;4986589;28;20038;-60
2022/08/26 08:27:17;;;;;;;10.50;3.38;;;22.20;99.90;;;;;;4983470;28;20018;-61
2022/08/26 08:29:44;;;;;;;9.43;3.38;;;22.20;99.90;;;;;;4985898;28;20034;-62
2022/08/26 08:32:10;;;;;;;10.25;3.40;;;22.10;99.90;;;;;;4986225;28;20034;-60
2022/08/26 08:34:35;;;;;;;10.07;3.20;;;22.00;99.90;;;;;;4985172;28;20651;-61
2022/08/26 08:37:03;;;;;;;6.53;2.60;;;22.00;99.90;;;;;;4987577;28;20125;-60
2022/08/26 08:39:30;;;;;;;39.83;5.18;;;21.80;99.90;;;;;;4985811;28;20030;-61
2022/08/26 08:42:33;;;;;;;13.55;3.45;;;22.00;99.90;;;;;;4986051;28;20042;-61
2022/08/26 08:45:03;;;;;;;8.35;2.90;;;22.10;99.90;;;;;;4975768;28;20565;-61
2022/08/26 08:47:41;;;;;;;9.30;3.45;;;22.10;99.90;;;;;;4982212;28;20026;-60
2022/08/26 08:50:13;;;;;;;13.77;3.92;;;22.10;99.90;;;;;;4982769;28;20121;-61
2022/08/26 08:52:43;;;;;;;8.10;2.65;;;22.10;99.90;;;;;;4982259;28;20022;-62
2022/08/26 08:55:11;;;;;;;7.43;2.70;;;22.30;99.90;;;;;;4986164;28;20038;-61
2022/08/26 08:58:02;;;;;;;7.43;2.72;;;22.30;99.90;;;;;;4982400;28;20038;-61
2022/08/26 09:00:56;;;;;;;8.50;3.15;;;22.20;99.90;;;;;;4982308;28;20454;-60
2022/08/26 09:03:24;;;;;;;;;;;22.30;99.90;;;;;;4981002;28;20038;-61
2022/08/26 09:05:51;;;;;;;9.70;3.00;;;22.30;99.90;;;;;;4983400;28;19925;-61
2022/08/26 09:08:23;;;;;;;9.35;2.80;;;22.30;99.90;;;;;;4985324;28;20486;-61
2022/08/26 09:10:54;;;;;;;11.35;3.38;;;22.60;99.90;;;;;;4986508;28;20054;-61
2022/08/26 09:13:21;;;;;;;8.80;2.95;;;22.60;99.90;;;;;;4984242;28;20022;-59
2022/08/26 09:16:06;;;;;;;7.07;3.50;;;22.50;99.90;;;;;;4982163;28;20513;-61
2022/08/26 09:18:34;;;;;;;7.25;3.03;;;22.60;99.90;;;;;;4983666;28;20034;-61
2022/08/26 09:21:12;;;;;;;14.88;3.97;;;22.60;99.90;;;;;;4985684;28;20077;-60
2022/08/26 09:23:40;;;;;;;8.90;3.60;;;22.50;99.90;;;;;;4984909;28;20065;-66
2022/08/26 09:26:19;;;;;;;7.85;3.03;;;22.70;99.90;;;;;;4985013;28;20560;-62
2022/08/26 09:29:09;;;;;;;9.27;2.90;;;22.70;99.90;;;;;;4985414;28;20501;-62
2022/08/26 09:31:37;;;;;;;11.00;2.42;;;22.60;99.90;;;;;;4984625;28;20111;-62
2022/08/26 09:34:03;;;;;;;5.47;2.15;;;22.60;99.90;;;;;;4983311;28;20030;-62
2022/08/26 09:36:36;;;;;;;9.90;2.58;;;22.60;99.90;;;;;;4979160;28;20036;-61
2022/08/26 09:39:02;;;;;;;8.43;2.90;;;22.60;99.90;;;;;;4981283;28;20037;-61
2022/08/26 09:41:34;;;;;;;8.85;2.53;;;22.70;99.90;;;;;;4981334;28;20458;-62
2022/08/26 09:44:10;;;;;;;8.70;3.00;;;22.70;99.90;;;;;;4984953;28;20389;-62
2022/08/26 09:46:38;;;;;;;9.70;3.85;;;22.60;99.90;;;;;;4981183;28;20751;-62
2022/08/26 09:49:33;;;;;;;9.02;3.03;;;22.60;99.90;;;;;;4985069;28;20121;-62
2022/08/26 09:52:22;;;;;;;13.38;3.85;;;22.80;99.90;;;;;;4979303;28;20088;-61
2022/08/26 09:55:11;;;;;;;10.82;3.40;;;22.80;99.90;;;;;;4979276;28;20054;-59
2022/08/26 09:57:49;;;;;;;8.80;3.60;;;23.00;99.90;;;;;;4981357;28;20049;-60
2022/08/26 10:00:29;;;;;;;9.73;3.40;;;23.00;99.90;;;;;;4981151;28;20014;-62
2022/08/26 10:02:59;;;;;;;11.00;3.83;;;23.10;99.90;;;;;;4984825;28;20097;-61
2022/08/26 10:05:54;;;;;;;8.10;3.63;;;23.30;99.90;;;;;;4985322;28;20025;-64
2022/08/26 10:08:21;;;;;;;103.97;89.53;;;23.40;99.90;;;;;;4984653;28;20466;-61
2022/08/26 10:10:48;;;;;;;10.35;4.97;;;23.50;99.90;;;;;;4983900;28;20425;-60
2022/08/26 10:13:20;;;;;;;13.45;4.78;;;23.50;99.90;;;;;;4982543;28;20035;-63
2022/08/26 10:15:57;;;;;;;12.57;4.53;;;23.60;99.90;;;;;;4983853;28;20041;-61
2022/08/26 10:18:47;;;;;;;11.10;4.70;;;23.70;99.90;;;;;;4986776;28;20044;-62
2022/08/26 10:21:29;;;;;;;9.27;2.70;;;23.70;99.90;;;;;;4988443;28;20129;-61
2022/08/26 10:23:58;;;;;;;13.52;3.10;;;23.90;99.90;;;;;;4983142;28;20454;-62
2022/08/26 10:26:47;;;;;;;9.65;3.17;;;23.90;99.90;;;;;;4985148;28;20038;-62
2022/08/26 10:29:21;;;;;;;8.80;3.85;;;23.70;99.90;;;;;;4985799;28;20061;-61
2022/08/26 10:32:11;;;;;;;11.48;3.25;;;23.50;99.90;;;;;;4980701;28;20038;-67
2022/08/26 10:34:37;;;;;;;12.65;2.65;;;23.40;99.90;;;;;;4982988;28;20434;-66
2022/08/26 10:37:14;;;;;;;13.68;2.92;;;23.30;99.90;;;;;;4983373;28;20054;-65
2022/08/26 10:39:55;;;;;;;9.52;2.53;;;23.30;99.90;;;;;;4981646;28;20027;-67
2022/08/26 10:42:32;;;;;;;7.95;2.22;;;23.10;99.90;;;;;;4981933;28;20034;-66
2022/08/26 10:45:11;;;;;;;16.63;2.60;;;23.00;99.90;;;;;;4978561;28;20038;-66
2022/08/26 10:47:44;;;;;;;13.23;2.45;;;23.20;99.90;;;;;;4982561;28;20074;-66
2022/08/26 10:50:10;;;;;;;26.02;3.15;;;23.40;99.90;;;;;;4982115;28;20132;-65
2022/08/26 10:53:06;;;;;;;10.73;2.20;;;23.30;99.90;;;;;;4981681;28;20474;-66
2022/08/26 10:55:34;;;;;;;9.15;2.83;;;23.30;99.90;;;;;;4985855;28;20035;-65
2022/08/26 10:58:21;;;;;;;9.65;2.72;;;23.30;99.90;;;;;;4986284;28;20104;-64
2022/08/26 11:03:55;;;;;;;10.48;2.50;;;23.10;99.90;;;;;;4977391;28;20121;-66
2022/08/26 11:06:22;;;;;;;7.88;2.63;;;23.30;99.90;;;;;;4978554;28;20034;-65
2022/08/26 11:08:58;;;;;;;4.50;2.25;;;23.40;99.90;;;;;;4982202;28;20049;-64
2022/08/26 11:11:39;;;;;;;6.97;2.42;;;23.50;99.90;;;;;;4982608;28;20027;-65
2022/08/26 11:14:18;;;;;;;7.78;2.30;;;23.50;99.90;;;;;;4984347;28;20086;-65
2022/08/26 11:16:52;;;;;;;8.23;2.35;;;23.70;99.90;;;;;;5004630;28;20113;-65
2022/08/26 11:19:40;;;;;;;8.48;2.45;;;23.60;99.90;;;;;;4986305;28;20033;-64
2022/08/26 11:22:06;;;;;;;6.93;2.53;;;23.50;99.90;;;;;;4985454;28;20034;-67
2022/08/26 11:24:39;;;;;;;5.10;1.95;;;23.70;99.90;;;;;;4986656;28;20042;-67
2022/08/26 11:27:08;;;;;;;6.80;2.20;;;23.70;99.90;;;;;;4983826;28;20038;-67
2022/08/26 11:29:59;;;;;;;5.60;1.60;;;23.70;99.90;;;;;;4978640;28;20034;-67
2022/08/26 11:32:48;;;;;;;6.65;2.05;;;23.70;99.90;;;;;;4993843;28;20045;-66
2022/08/26 11:35:17;;;;;;;12.38;3.17;;;23.70;99.90;;;;;;4979760;28;20042;-67
2022/08/26 11:38:01;;;;;;;7.38;2.63;;;23.80;99.90;;;;;;4989331;28;20060;-65
2022/08/26 11:40:34;;;;;;;6.30;2.13;;;23.60;99.90;;;;;;4982819;28;20038;-67
2022/08/26 11:43:06;;;;;;;4.57;2.15;;;23.50;99.90;;;;;;4986629;28;20106;-64
2022/08/26 11:45:37;;;;;;;7.00;2.22;;;23.50;99.90;;;;;;4983127;28;20109;-68
2022/08/26 11:48:20;;;;;;;7.45;2.13;;;23.90;99.90;;;;;;4987517;28;20026;-68
2022/08/26 11:50:52;;;;;;;;;;;23.90;99.90;;;;;;4983300;28;20018;-66
2022/08/26 11:53:18;;;;;;;5.40;1.77;;;23.80;99.90;;;;;;4987713;28;19948;-66
2022/08/26 11:55:44;;;;;;;7.32;2.30;;;23.90;99.90;;;;;;4985645;28;20441;-67
2022/08/26 11:58:12;;;;;;;8.30;1.90;;;23.80;99.90;;;;;;4985846;28;20144;-65
2022/08/26 12:00:56;;;;;;;7.82;2.13;;;23.70;99.90;;;;;;4984366;28;20113;-66
2022/08/26 12:03:40;;;;;;;5.22;1.90;;;23.90;99.90;;;;;;4983442;28;20026;-65
2022/08/26 12:06:22;;;;;;;9.25;1.80;;;23.90;99.90;;;;;;4995182;28;20058;-65
2022/08/26 12:08:49;;;;;;;5.40;1.80;;;24.00;99.90;;;;;;4986231;28;20038;-66
2022/08/26 12:11:29;;;;;;;9.07;2.25;;;23.90;99.90;;;;;;4983536;28;20053;-65
2022/08/26 12:14:04;;;;;;;7.38;2.00;;;23.80;99.90;;;;;;4986601;28;20137;-65
2022/08/26 12:16:35;;;;;;;5.25;1.73;;;23.80;99.90;;;;;;4984756;28;20034;-65
2022/08/26 12:19:20;;;;;;;6.57;1.88;;;24.00;99.90;;;;;;4983802;28;20510;-65
2022/08/26 12:21:47;;;;;;;10.48;1.90;;;23.60;99.90;;;;;;4984270;28;20393;-65
2022/08/26 12:24:17;;;;;;;4.40;1.73;;;23.70;99.90;;;;;;4984059;28;20449;-65
2022/08/26 12:26:43;;;;;;;6.82;2.13;;;23.70;99.90;;;;;;4981865;28;20046;-65
2022/08/26 12:29:30;;;;;;;6.60;2.00;;;23.70;99.90;;;;;;4984150;28;20274;-62
2022/08/26 12:32:12;;;;;;;4.13;1.52;;;23.60;99.90;;;;;;4979817;28;20038;-65
2022/08/26 12:34:43;;;;;;;7.75;1.90;;;23.70;99.90;;;;;;4981374;28;20042;-65
2022/08/26 12:37:10;;;;;;;9.25;1.95;;;23.60;99.90;;;;;;4981060;28;20697;-65
2022/08/26 12:39:39;;;;;;;6.10;1.65;;;23.70;99.90;;;;;;4980513;28;20060;-65
2022/08/26 12:42:39;;;;;;;5.03;1.80;;;23.70;99.90;;;;;;4991706;28;20140;-65
2022/08/26 12:45:05;;;;;;;9.27;1.83;;;23.60;99.90;;;;;;4981514;28;20035;-65
2022/08/26 12:47:33;;;;;;;13.90;2.35;;;23.60;99.90;;;;;;4983319;28;20064;-65
2022/08/26 12:50:04;;;;;;;13.43;2.45;;;23.50;99.90;;;;;;4981559;28;20032;-64
2022/08/26 12:52:33;;;;;;;7.63;2.58;;;23.60;99.90;;;;;;4984461;28;20390;-65
2022/08/26 12:55:17;;;;;;;8.15;2.13;;;23.90;99.90;;;;;;4985175;28;20039;-64
2022/08/26 12:57:42;;;;;;;8.13;2.08;;;23.70;99.90;;;;;;4988764;28;20033;-65
2022/08/26 13:00:28;;;;;;;9.98;2.25;;;23.10;99.90;;;;;;4984563;28;20034;-64
2022/08/26 13:02:53;;;;;;;14.32;2.30;;;23.30;99.90;;;;;;4987778;28;20084;-65
2022/08/26 13:05:31;;;;;;;8.82;2.08;;;23.40;99.90;;;;;;4985045;28;20022;-64
2022/08/26 13:08:15;;;;;;;7.30;1.88;;;23.50;99.90;;;;;;4988519;28;20026;-64
2022/08/26 13:10:46;;;;;;;10.00;2.22;;;23.50;99.90;;;;;;4984920;28;20061;-64
2022/08/26 13:13:12;;;;;;;11.52;2.10;;;23.30;99.90;;;;;;4979647;28;20472;-64
2022/08/26 13:15:38;;;;;;;9.27;2.22;;;23.30;99.90;;;;;;4979159;28;20112;-64
2022/08/26 13:18:04;;;;;;;12.98;2.25;;;23.20;99.90;;;;;;4981721;28;20494;-64
2022/08/26 13:20:31;;;;;;;7.88;2.10;;;23.20;99.90;;;;;;4982150;28;20057;-64
2022/08/26 13:22:57;;;;;;;9.27;2.45;;;23.10;99.90;;;;;;4987389;28;20038;-64
2022/08/26 13:25:22;;;;;;;10.68;2.33;;;23.10;99.90;;;;;;4988025;28;20033;-64
2022/08/26 13:27:48;;;;;;;10.25;2.33;;;23.30;99.90;;;;;;4984022;28;20436;-64